Aérodrome :
LOGIN :

S'inscrire | Disclaimer

   EN    FR    IT 

 










Légende :    VFR   VFR Marginal   IFR   IFR Intensif   IFR Très Intensif
Visi : 
Plafond : 
>= 8 km
>= 3000ft
5 à 8 km
1000 à 3000 ft
1500m à 5 km
500 à 1000 ft
800 à 1500m
200 à 500 ft
< 800m
< 200 ft
Symboles :   Orages  Brouillard  Fortes neiges  Fortes précipitations  Vent > 20 kt
SIGMETs :   Divers  Orages  Givrage  Turbulence  Onde Orograph.  Cendres Volcan.






- Altitude de l'aérodrome : 1416 ft
- Code IATA : ZRH


LSZH - Zurich

DERNIER METAR :
  • 212250Z 27001KT 6000 NSC M04/M05 Q1036 NOSIG

METARs EXPIRÉS :
  • 212220Z VRB01KT 6000 NSC M05/M06 Q1036 NOSIG
  • 212150Z VRB01KT 6000 NSC M04/M05 Q1036 NOSIG
  • 212120Z VRB01KT 6000 NSC M04/M05 Q1036 NOSIG
  • 212050Z VRB02KT 6000 NSC M04/M05 Q1036 NOSIG

TAF TAF LSZH
Valide du 21 à 21h jusqu'au 23 à 03h UTC


212025Z 2121/2303 03004KT 7000 NSC TX02/2214Z TNM04/2206Z
BECMG 2122/2124 4000 BR
BECMG 2200/2202 1500 BCFG SCT004
PROB40 2203/2208 0500 FZFG VV002
BECMG 2208/2211 7000 NSW
TEMPO 2212/2216 CAVOK
BECMG 2221/2223 4500 BR SCT005
ATIS : +41 43 816 2295 (DEP) +41 43 816 2294 (ARR)



MET'MAP, la Météo Aéronautique d'un coup d'oeil ! - Copyright ORBIFLY Décembre 2007 - Disclaimer

ORBIFLY MET'MAP TEAM :

Programmation & Développement : Alexandra Zaïnal
Sur une idée originale de : Baudouin d'Aumeries
Assistance à la programmation : Marc-Olivier Méhu
Soutien technique & logistique : Manuel Goepfert

Contact : metmap@orbifly.com




SOURCES & CREDITS :

   NOAA